Time;durP1;ratioP1;P1;durP2;ratioP2;P2;SDS_P1;SDS_P2;PMS_P1;PMS_P2;Temp;Humidity;BMP_temperature;BMP_pressure;BME280_temperature;BME280_humidity;BME280_pressure;Samples;Min_cycle;Max_cycle;Signal;HPM_P1;HPM_P2
2023/04/28 00:00:43;;;;;;;2.30;2.08;;;;;;;16.23;52.69;96940.44;4856465;28;20062;-76
2023/04/28 00:03:08;;;;;;;2.95;2.60;;;;;;;16.13;53.17;96937.94;4874101;28;20281;-76
2023/04/28 00:05:34;;;;;;;2.50;2.25;;;;;;;16.07;52.69;96933.81;4886726;28;20529;-75
2023/04/28 00:07:59;;;;;;;2.85;2.00;;;;;;;16.05;53.20;96943.84;4872110;28;20533;-75
2023/04/28 00:10:24;;;;;;;2.67;2.40;;;;;;;16.00;53.32;96931.56;4867190;28;20210;-75
2023/04/28 00:12:50;;;;;;;2.97;2.20;;;;;;;16.00;52.80;96926.31;4884968;28;20191;-75
2023/04/28 00:15:15;;;;;;;2.60;2.40;;;;;;;15.96;52.68;96921.94;4850748;28;20605;-75
2023/04/28 00:17:42;;;;;;;2.60;2.28;;;;;;;16.01;51.99;96921.84;4853741;28;20611;-76
2023/04/28 00:20:08;;;;;;;3.08;2.78;;;;;;;16.04;51.88;96916.81;4865186;28;20066;-75
2023/04/28 00:22:33;;;;;;;3.90;2.50;;;;;;;16.08;50.70;96923.03;4872711;28;20108;-75
2023/04/28 00:24:59;;;;;;;2.03;1.75;;;;;;;16.15;50.31;96914.81;4870848;28;20199;-75
2023/04/28 00:27:24;;;;;;;2.40;2.20;;;;;;;16.17;50.45;96907.41;4887710;28;20318;-74
2023/04/28 00:29:50;;;;;;;3.55;2.20;;;;;;;16.27;49.65;96909.88;4849942;28;20222;-75
2023/04/28 00:32:15;;;;;;;2.85;2.00;;;;;;;16.26;50.08;96903.06;4881336;28;20401;-76
2023/04/28 00:34:41;;;;;;;2.58;1.73;;;;;;;16.35;49.64;96899.78;4875831;28;20192;-76
2023/04/28 00:37:07;;;;;;;3.08;2.63;;;;;;;16.35;49.59;96894.50;4873620;28;20395;-75
2023/04/28 00:39:33;;;;;;;3.47;2.20;;;;;;;16.36;50.05;96896.09;4880900;28;20203;-74
2023/04/28 00:42:00;;;;;;;2.80;2.20;;;;;;;16.33;49.93;96884.31;4855012;28;20260;-75
2023/04/28 00:44:26;;;;;;;2.22;2.03;;;;;;;16.32;50.28;96893.25;4865630;28;20526;-75
2023/04/28 00:46:52;;;;;;;1.85;1.75;;;;;;;16.41;50.42;96893.38;4888968;28;20427;-75
2023/04/28 00:49:18;;;;;;;3.13;2.00;;;;;;;16.41;50.41;96890.75;4863548;28;20238;-75
2023/04/28 00:51:43;;;;;;;3.13;1.77;;;;;;;16.34;50.85;96874.59;4889549;28;20460;-75
2023/04/28 00:54:12;;;;;;;2.42;2.22;;;;;;;16.41;51.12;96888.13;4879259;28;20375;-75
2023/04/28 00:56:37;;;;;;;2.90;2.28;;;;;;;16.33;51.20;96884.31;4869890;28;20179;-75
2023/04/28 00:59:03;;;;;;;3.38;1.92;;;;;;;16.31;51.37;96888.28;4878326;28;20177;-75
2023/04/28 01:01:29;;;;;;;3.83;2.20;;;;;;;16.33;50.68;96892.19;4870684;28;20202;-75
2023/04/28 01:03:54;;;;;;;2.60;1.88;;;;;;;16.32;51.05;96880.13;4876803;28;20544;-75
2023/04/28 01:06:20;;;;;;;4.72;2.28;;;;;;;16.43;51.16;96880.72;4894491;28;20334;-75
2023/04/28 01:08:47;;;;;;;2.00;1.80;;;;;;;16.38;51.56;96883.44;4868110;28;20458;-74
2023/04/28 01:11:13;;;;;;;2.13;1.90;;;;;;;16.31;52.05;96885.66;4889533;28;20228;-75
2023/04/28 01:13:39;;;;;;;3.17;2.15;;;;;;;16.22;53.58;96888.94;4892016;28;20330;-75
2023/04/28 01:16:06;;;;;;;2.85;2.53;;;;;;;16.29;53.38;96881.47;4879555;28;20163;-75
2023/04/28 01:18:32;;;;;;;2.97;2.50;;;;;;;16.35;54.61;96878.75;4885754;28;20293;-75
2023/04/28 01:20:58;;;;;;;3.30;2.58;;;;;;;16.10;55.29;96881.50;4875330;28;20167;-75
2023/04/28 01:23:23;;;;;;;3.40;2.20;;;;;;;16.04;55.75;96879.25;4877047;28;20218;-75
2023/04/28 01:25:48;;;;;;;2.92;2.63;;;;;;;16.11;55.92;96882.31;4874289;28;20308;-75
2023/04/28 01:28:14;;;;;;;3.65;2.67;;;;;;;16.02;56.71;96886.63;4887625;28;20342;-75
2023/04/28 01:30:40;;;;;;;2.90;2.60;;;;;;;15.83;57.16;96882.19;4886857;28;20198;-75
2023/04/28 01:33:05;;;;;;;2.80;2.50;;;;;;;15.81;57.45;96888.78;4889533;28;20461;-75
2023/04/28 01:35:30;;;;;;;3.53;3.13;;;;;;;15.67;57.83;96878.97;4892741;28;20210;-75
2023/04/28 01:37:56;;;;;;;3.95;2.88;;;;;;;15.68;58.64;96891.03;4868442;28;20211;-76
2023/04/28 01:40:21;;;;;;;2.97;2.42;;;;;;;15.60;58.83;96877.78;4872793;28;20446;-76
2023/04/28 01:42:47;;;;;;;3.28;2.88;;;;;;;15.57;59.25;96868.63;4895574;28;20166;-76
2023/04/28 01:45:12;;;;;;;3.15;2.75;;;;;;;15.65;58.60;96872.47;4875082;28;20471;-75
2023/04/28 01:47:38;;;;;;;3.28;2.40;;;;;;;15.58;59.08;96864.16;4872917;28;20212;-76
2023/04/28 01:50:04;;;;;;;3.13;2.83;;;;;;;15.52;59.56;96861.63;4887313;28;20354;-75
2023/04/28 01:52:30;;;;;;;3.53;2.92;;;;;;;15.46;59.60;96860.13;4887784;28;20334;-75
2023/04/28 01:54:55;;;;;;;4.72;2.55;;;;;;;15.53;59.35;96862.38;4872341;28;20030;-75
2023/04/28 01:57:21;;;;;;;3.30;2.50;;;;;;;15.57;59.52;96863.38;4888448;28;20531;-75
2023/04/28 01:59:47;;;;;;;2.95;2.58;;;;;;;15.52;59.92;96861.63;4870077;28;20394;-75
2023/04/28 02:02:12;;;;;;;3.30;2.90;;;;;;;15.35;60.48;96856.84;4856393;28;20474;-76
2023/04/28 02:04:38;;;;;;;4.32;3.00;;;;;;;15.38;60.59;96860.75;4875612;28;20715;-75
2023/04/28 02:07:05;;;;;;;3.05;2.58;;;;;;;15.43;60.22;96871.16;4877436;28;20461;-75
2023/04/28 02:09:31;;;;;;;3.25;2.83;;;;;;;15.55;60.19;96871.53;4875025;28;20406;-76
2023/04/28 02:11:56;;;;;;;3.80;2.95;;;;;;;15.50;60.16;96871.59;4863513;28;20201;-75
2023/04/28 02:14:22;;;;;;;4.25;2.80;;;;;;;15.46;60.28;96888.19;4860686;28;20486;-76
2023/04/28 02:16:47;;;;;;;3.63;2.88;;;;;;;15.39;59.96;96878.06;4874875;28;20410;-75
2023/04/28 02:19:14;;;;;;;3.58;2.95;;;;;;;15.60;59.61;96890.91;4861280;28;20274;-75
2023/04/28 02:21:41;;;;;;;4.07;2.80;;;;;;;15.44;60.04;96878.00;4868334;28;20396;-75
2023/04/28 02:24:07;;;;;;;3.17;2.67;;;;;;;15.41;60.25;96870.69;4866416;28;20333;-75
2023/04/28 02:26:33;;;;;;;2.85;2.65;;;;;;;15.37;60.54;96872.31;4854826;28;20196;-75
2023/04/28 02:28:58;;;;;;;3.25;2.78;;;;;;;15.41;60.82;96878.53;4885731;28;20203;-75
2023/04/28 02:31:24;;;;;;;2.72;2.53;;;;;;;15.46;60.47;96857.50;4877388;28;20236;-76
2023/04/28 02:33:49;;;;;;;4.05;2.80;;;;;;;15.46;60.54;96865.34;4885386;28;20459;-76
2023/04/28 02:36:15;;;;;;;3.47;2.95;;;;;;;15.41;60.87;96864.66;4852741;28;20026;-75
2023/04/28 02:38:40;;;;;;;4.20;3.05;;;;;;;15.44;61.09;96866.69;4892491;28;20286;-76
2023/04/28 02:41:08;;;;;;;3.58;2.83;;;;;;;15.44;61.09;96858.81;4872495;28;20471;-75
2023/04/28 02:43:34;;;;;;;3.63;2.70;;;;;;;15.44;61.24;96851.75;4852153;29;20199;-74
2023/04/28 02:46:01;;;;;;;5.22;3.25;;;;;;;15.37;61.58;96859.19;4858140;28;20268;-75
2023/04/28 02:48:26;;;;;;;2.97;2.67;;;;;;;15.39;61.61;96854.44;4847646;28;20395;-75
2023/04/28 02:50:52;;;;;;;3.13;2.83;;;;;;;15.37;61.71;96848.69;4874001;28;20131;-75
2023/04/28 02:53:18;;;;;;;4.93;3.25;;;;;;;15.44;61.68;96843.88;4868986;28;20319;-75
2023/04/28 02:55:44;;;;;;;4.55;3.20;;;;;;;15.44;61.48;96833.38;4877254;28;20290;-76
2023/04/28 02:58:09;;;;;;;3.90;3.10;;;;;;;15.48;61.53;96839.63;4877389;28;20677;-76
2023/04/28 03:00:35;;;;;;;3.30;3.00;;;;;;;15.42;61.47;96829.47;4867850;28;20372;-76
2023/04/28 03:03:00;;;;;;;4.95;3.53;;;;;;;15.31;61.86;96829.59;4890004;28;20464;-75
2023/04/28 03:05:26;;;;;;;4.03;3.40;;;;;;;15.39;61.60;96830.03;4862265;28;20264;-75
2023/04/28 03:07:52;;;;;;;4.00;3.03;;;;;;;15.31;62.11;96823.59;4854454;28;20278;-75
2023/04/28 03:10:17;;;;;;;4.10;3.25;;;;;;;15.27;61.99;96814.75;4864074;28;20263;-76
2023/04/28 03:12:43;;;;;;;4.43;3.15;;;;;;;15.28;62.21;96826.78;4876629;28;20406;-75
2023/04/28 03:15:08;;;;;;;3.42;3.13;;;;;;;15.29;62.31;96829.13;4869330;28;20288;-75
2023/04/28 03:17:40;;;;;;;3.30;3.00;;;;;;;15.23;62.55;96826.84;4870060;28;20553;-76
2023/04/28 03:20:07;;;;;;;4.50;3.42;;;;;;;15.27;62.52;96833.09;4871219;28;20202;-75
2023/04/28 03:22:33;;;;;;;4.22;3.35;;;;;;;15.22;63.04;96833.94;4874961;28;20203;-75
2023/04/28 03:24:58;;;;;;;3.80;3.10;;;;;;;15.26;62.51;96824.44;4876181;28;20496;-75
2023/04/28 03:27:24;;;;;;;4.22;3.40;;;;;;;15.27;63.14;96820.00;4892330;28;20496;-75
2023/04/28 03:29:49;;;;;;;4.65;3.05;;;;;;;15.26;62.67;96813.94;4887974;28;20536;-75
2023/04/28 03:32:15;;;;;;;3.22;2.92;;;;;;;15.31;62.88;96819.13;4852204;28;20709;-75
2023/04/28 03:34:40;;;;;;;4.47;3.15;;;;;;;15.34;62.87;96817.78;4854252;28;20502;-75
2023/04/28 03:37:06;;;;;;;4.03;3.03;;;;;;;15.32;62.82;96818.06;4868785;28;20175;-75
2023/04/28 03:39:31;;;;;;;3.35;2.58;;;;;;;15.29;63.13;96812.59;4886632;28;20541;-75
2023/04/28 03:41:57;;;;;;;3.40;2.90;;;;;;;15.33;63.15;96818.84;4879888;28;20405;-75
2023/04/28 03:44:22;;;;;;;4.10;3.70;;;;;;;15.39;62.63;96812.47;4880198;28;20631;-75
2023/04/28 03:46:48;;;;;;;4.55;3.67;;;;;;;15.35;62.91;96814.88;4887669;28;20285;-74
2023/04/28 03:49:14;;;;;;;3.70;3.22;;;;;;;15.27;63.01;96804.25;4885955;28;20451;-75
2023/04/28 03:51:39;;;;;;;3.90;3.20;;;;;;;15.39;62.69;96801.19;4853253;28;20395;-75
2023/04/28 03:54:05;;;;;;;4.97;3.20;;;;;;;15.37;63.00;96798.88;4883722;28;20065;-75
2023/04/28 03:56:31;;;;;;;3.47;3.17;;;;;;;15.34;63.02;96791.56;4866595;28;20413;-75
2023/04/28 03:58:57;;;;;;;4.88;3.15;;;;;;;15.31;63.45;96785.00;4862150;28;20617;-75
2023/04/28 04:01:22;;;;;;;5.15;3.53;;;;;;;15.39;63.19;96781.00;4863612;28;20073;-74
2023/04/28 04:03:48;;;;;;;3.65;3.20;;;;;;;15.41;63.07;96770.22;4884638;28;20435;-76
2023/04/28 04:06:13;;;;;;;3.88;3.35;;;;;;;15.36;63.47;96773.69;4874051;28;20279;-75
2023/04/28 04:08:39;;;;;;;4.30;3.25;;;;;;;15.37;63.39;96770.00;4895345;28;20428;-75
2023/04/28 04:11:05;;;;;;;3.67;3.30;;;;;;;15.41;63.55;96764.97;4875351;28;20542;-76
2023/04/28 04:13:30;;;;;;;4.35;3.35;;;;;;;15.38;63.58;96770.78;4861396;28;20211;-75
2023/04/28 04:15:56;;;;;;;4.32;3.55;;;;;;;15.40;63.70;96771.25;4897572;28;20619;-75
2023/04/28 04:18:21;;;;;;;5.88;3.20;;;;;;;15.40;63.93;96771.25;4875839;28;20168;-75
2023/04/28 04:20:48;;;;;;;3.60;2.75;;;;;;;15.43;63.70;96771.47;4873407;28;20295;-75
2023/04/28 04:23:14;;;;;;;5.45;3.33;;;;;;;15.39;64.07;96772.31;4872762;28;20188;-75
2023/04/28 04:25:40;;;;;;;4.25;3.33;;;;;;;15.39;64.47;96767.06;4878041;28;20218;-75
2023/04/28 04:28:05;;;;;;;4.95;3.28;;;;;;;15.39;64.05;96762.63;4877096;28;20266;-75
2023/04/28 04:30:31;;;;;;;4.22;3.83;;;;;;;15.36;64.33;96761.34;4879827;28;20107;-75
2023/04/28 04:32:56;;;;;;;6.38;3.50;;;;;;;15.32;64.40;96759.59;4856800;28;20096;-75
2023/04/28 04:35:22;;;;;;;4.55;3.40;;;;;;;15.39;64.03;96748.72;4870931;28;20388;-75
2023/04/28 04:37:47;;;;;;;3.67;3.33;;;;;;;15.36;64.23;96752.69;4889653;28;20340;-75
2023/04/28 04:40:12;;;;;;;5.40;3.75;;;;;;;15.35;64.42;96756.38;4900875;28;20324;-75
2023/04/28 04:42:38;;;;;;;6.18;3.63;;;;;;;15.39;64.39;96767.88;4874447;28;20302;-75
2023/04/28 04:45:04;;;;;;;5.10;3.60;;;;;;;15.44;64.23;96765.16;4871914;28;20492;-74
2023/04/28 04:47:29;;;;;;;4.28;3.88;;;;;;;15.35;64.63;96762.41;4871514;28;20467;-75
2023/04/28 04:49:55;;;;;;;4.13;3.60;;;;;;;15.43;64.16;96768.84;4889139;28;20435;-75
2023/04/28 04:52:20;;;;;;;4.55;3.65;;;;;;;15.41;64.65;96770.97;4887039;28;20493;-75
2023/04/28 04:54:46;;;;;;;5.10;3.60;;;;;;;15.42;64.49;96761.25;4874117;28;20363;-75
2023/04/28 04:57:12;;;;;;;6.22;4.40;;;;;;;15.47;64.61;96763.81;4872925;28;20362;-75
2023/04/28 04:59:37;;;;;;;4.65;3.28;;;;;;;15.44;64.65;96759.13;4858380;28;20600;-75
2023/04/28 05:02:03;;;;;;;3.92;3.53;;;;;;;15.44;64.67;96764.38;4890472;28;20178;-75
2023/04/28 05:04:28;;;;;;;4.57;3.40;;;;;;;15.36;65.09;96763.19;4871941;28;20387;-75
2023/04/28 05:06:54;;;;;;;5.57;3.80;;;;;;;15.48;64.87;96752.25;4888144;28;20147;-76
2023/04/28 05:09:19;;;;;;;5.03;3.65;;;;;;;15.38;65.15;96750.56;4888824;28;20454;-75
2023/04/28 05:11:45;;;;;;;6.45;4.50;;;;;;;15.28;65.29;96743.63;4868935;28;20184;-75
2023/04/28 05:14:10;;;;;;;4.35;3.45;;;;;;;15.33;65.44;96740.91;4893018;28;20313;-76
2023/04/28 05:16:37;;;;;;;5.15;4.03;;;;;;;15.48;65.00;96739.91;4887392;28;20433;-76
2023/04/28 05:19:03;;;;;;;4.18;3.50;;;;;;;15.52;64.80;96743.53;4882372;28;20284;-77
2023/04/28 05:21:29;;;;;;;4.20;3.80;;;;;;;15.49;65.07;96746.72;4870566;28;20050;-76
2023/04/28 05:23:56;;;;;;;4.53;3.67;;;;;;;15.50;65.32;96743.03;4875942;28;20334;-76
2023/04/28 05:26:22;;;;;;;4.25;3.22;;;;;;;15.48;65.35;96744.38;4871165;28;20399;-76
2023/04/28 05:28:47;;;;;;;3.53;3.03;;;;;;;15.47;65.69;96746.25;4875569;28;20066;-76
2023/04/28 05:31:13;;;;;;;4.15;3.75;;;;;;;15.56;65.66;96743.75;4882868;28;20106;-76
2023/04/28 05:33:38;;;;;;;4.53;3.83;;;;;;;15.56;65.39;96746.38;4882200;28;20439;-76
2023/04/28 05:36:04;;;;;;;4.10;3.30;;;;;;;15.58;65.79;96743.47;4869594;28;20030;-77
2023/04/28 05:38:31;;;;;;;3.60;3.25;;;;;;;15.59;65.66;96752.88;4873161;28;20168;-76
2023/04/28 05:40:57;;;;;;;5.65;4.20;;;;;;;15.54;65.72;96749.28;4856077;28;20280;-75
2023/04/28 05:43:22;;;;;;;4.25;3.88;;;;;;;15.62;65.77;96754.94;4885788;28;20244;-76
2023/04/28 05:45:48;;;;;;;4.57;4.18;;;;;;;15.47;66.90;96738.38;4873058;28;20433;-76
2023/04/28 05:48:13;;;;;;;4.28;3.70;;;;;;;15.57;66.39;96747.13;4873603;28;20394;-76
2023/04/28 05:50:39;;;;;;;4.47;3.78;;;;;;;15.53;67.06;96736.44;4856614;28;20741;-76
2023/04/28 05:53:04;;;;;;;6.72;4.20;;;;;;;15.55;66.97;96742.94;4886249;28;20210;-77
2023/04/28 05:55:30;;;;;;;6.78;3.80;;;;;;;15.57;67.23;96731.38;4867469;28;20447;-76
2023/04/28 05:57:55;;;;;;;4.45;3.65;;;;;;;15.69;66.41;96734.34;4884253;28;20281;-76
2023/04/28 06:00:21;;;;;;;3.92;3.47;;;;;;;15.71;66.50;96743.50;4871617;28;20529;-77
2023/04/28 06:02:46;;;;;;;4.15;3.05;;;;;;;15.69;66.72;96757.97;4895836;28;20125;-76
2023/04/28 06:05:12;;;;;;;3.47;3.17;;;;;;;15.60;67.29;96757.06;4872703;28;20216;-76
2023/04/28 06:07:37;;;;;;;4.28;3.28;;;;;;;15.61;67.27;96755.97;4879874;28;20046;-76
2023/04/28 06:10:04;;;;;;;3.40;2.55;;;;;;;15.68;66.83;96751.16;4857728;28;20192;-76
2023/04/28 06:12:30;;;;;;;2.75;2.53;;;;;;;15.69;66.93;96758.72;4892524;28;20377;-76
2023/04/28 06:14:58;;;;;;;3.35;2.80;;;;;;;15.66;67.03;96743.56;4870435;28;20089;-76
2023/04/28 06:17:23;;;;;;;3.50;2.88;;;;;;;15.67;67.18;96744.34;4880108;28;20492;-76
2023/04/28 06:19:50;;;;;;;2.85;2.22;;;;;;;15.79;66.91;96754.44;4892104;28;20541;-76
2023/04/28 06:22:15;;;;;;;2.83;2.53;;;;;;;15.68;67.29;96761.66;4853348;28;20384;-76
2023/04/28 06:24:41;;;;;;;3.70;2.58;;;;;;;15.63;67.73;96762.50;4854162;28;20594;-76
2023/04/28 06:27:07;;;;;;;2.80;2.58;;;;;;;15.64;67.48;96774.56;4872520;28;20403;-75
2023/04/28 06:29:32;;;;;;;2.95;2.53;;;;;;;15.66;67.61;96775.06;4876508;28;20290;-76
2023/04/28 06:31:58;;;;;;;3.38;2.40;;;;;;;15.69;67.60;96768.44;4881432;28;20242;-76
2023/04/28 06:34:27;;;;;;;2.50;2.28;;;;;;;15.80;67.51;96776.97;4868926;28;20592;-76
2023/04/28 06:36:54;;;;;;;2.95;2.38;;;;;;;15.72;67.83;96778.38;4888990;28;20183;-76
2023/04/28 06:39:22;;;;;;;2.60;2.40;;;;;;;15.78;68.00;96777.28;4873748;28;20257;-76
2023/04/28 06:41:48;;;;;;;2.95;2.35;;;;;;;15.74;67.62;96773.63;4881375;28;20514;-76
2023/04/28 06:44:13;;;;;;;2.35;2.15;;;;;;;15.77;67.76;96775.72;4874810;28;20160;-76
2023/04/28 06:46:39;;;;;;;2.58;2.05;;;;;;;15.77;67.93;96780.19;4871479;28;20199;-76
2023/04/28 06:49:04;;;;;;;1.67;1.58;;;;;;;15.81;67.96;96789.81;4872433;28;20190;-76
2023/04/28 06:51:31;;;;;;;1.92;1.73;;;;;;;15.89;67.75;96799.66;4875247;28;20214;-76
2023/04/28 06:53:57;;;;;;;2.65;1.90;;;;;;;15.98;67.62;96799.00;4855455;28;20066;-76
2023/04/28 06:56:23;;;;;;;1.52;1.42;;;;;;;15.98;67.49;96802.41;4871976;28;20214;-76
2023/04/28 06:58:49;;;;;;;1.50;1.35;;;;;;;15.96;67.46;96796.66;4852929;29;20657;-76
2023/04/28 07:01:15;;;;;;;2.80;2.55;;;;;;;16.01;67.69;96795.81;4868371;28;20199;-76
2023/04/28 07:03:41;;;;;;;3.05;2.78;;;;;;;16.00;68.07;96789.00;4876734;28;20410;-76
2023/04/28 07:06:07;;;;;;;3.35;2.70;;;;;;;16.03;68.03;96791.03;4869028;28;20448;-76
2023/04/28 07:08:33;;;;;;;3.10;2.45;;;;;;;16.15;67.83;96796.59;4884182;28;20391;-76
2023/04/28 07:10:58;;;;;;;1.80;1.70;;;;;;;16.10;67.59;96784.34;4853527;29;20192;-76
2023/04/28 07:13:24;;;;;;;1.80;1.70;;;;;;;16.19;67.77;96788.91;4888783;28;20626;-76
2023/04/28 07:15:49;;;;;;;2.90;2.38;;;;;;;16.18;68.12;96790.00;4872607;28;20288;-77
2023/04/28 07:18:15;;;;;;;2.10;2.00;;;;;;;16.19;67.99;96789.69;4898784;28;20318;-76
2023/04/28 07:20:40;;;;;;;2.63;1.92;;;;;;;16.24;68.13;96786.97;4855827;28;20210;-76
2023/04/28 07:23:06;;;;;;;2.25;1.80;;;;;;;16.22;68.41;96793.59;4879838;28;20352;-77
2023/04/28 07:25:31;;;;;;;2.25;2.00;;;;;;;16.27;68.39;96799.53;4868994;28;20650;-76
2023/04/28 07:28:02;;;;;;;1.83;1.70;;;;;;;16.34;68.67;96787.88;4886618;28;20398;-76
2023/04/28 07:30:27;;;;;;;1.83;1.60;;;;;;;16.28;68.25;96787.97;4867921;28;20216;-77
2023/04/28 07:32:53;;;;;;;1.98;1.60;;;;;;;16.31;68.18;96785.81;4857892;28;20193;-77
2023/04/28 07:35:18;;;;;;;1.60;1.48;;;;;;;16.36;68.29;96793.63;4870274;28;20360;-76
2023/04/28 07:37:44;;;;;;;1.50;1.40;;;;;;;16.31;68.84;96780.56;4864857;28;20444;-77
2023/04/28 07:40:10;;;;;;;1.30;1.20;;;;;;;16.39;68.96;96793.03;4856027;28;20283;-76
2023/04/28 07:42:35;;;;;;;1.20;1.10;;;;;;;16.44;68.32;96782.44;4883664;28;20086;-77
2023/04/28 07:45:01;;;;;;;1.85;1.27;;;;;;;16.47;68.32;96795.78;4878336;28;20388;-77
2023/04/28 07:47:28;;;;;;;1.08;0.98;;;;;;;16.48;68.76;96789.47;4876049;28;20189;-77
2023/04/28 07:49:53;;;;;;;2.20;1.20;;;;;;;16.50;68.99;96788.38;4890735;28;20214;-77
2023/04/28 07:52:19;;;;;;;2.30;1.00;;;;;;;16.52;68.72;96787.03;4878419;28;20281;-77
2023/04/28 07:54:44;;;;;;;1.42;1.02;;;;;;;16.57;68.73;96786.91;4879806;28;20147;-76
2023/04/28 07:57:10;;;;;;;1.13;0.88;;;;;;;16.51;69.40;96782.06;4882736;28;20226;-76
2023/04/28 07:59:35;;;;;;;1.33;1.10;;;;;;;16.56;69.39;96787.97;4874034;28;20800;-77
2023/04/28 08:02:01;;;;;;;1.10;1.00;;;;;;;16.65;68.94;96782.81;4873708;28;20221;-77
2023/04/28 08:04:26;;;;;;;1.00;0.90;;;;;;;16.71;68.63;96783.50;4898146;28;20254;-77
2023/04/28 08:06:52;;;;;;;0.80;0.80;;;;;;;16.67;68.65;96781.47;4859265;28;20294;-77
2023/04/28 08:09:18;;;;;;;0.90;0.80;;;;;;;16.72;68.79;96774.53;4895771;28;20167;-76
2023/04/28 08:11:43;;;;;;;1.13;1.02;;;;;;;16.78;68.92;96782.03;4875845;28;20302;-77
2023/04/28 08:14:09;;;;;;;1.08;0.90;;;;;;;16.86;68.80;96780.59;4892195;28;20240;-76
2023/04/28 08:16:39;;;;;;;1.55;1.45;;;;;;;16.89;69.23;96785.25;4876353;28;20051;-77
2023/04/28 08:19:04;;;;;;;1.70;1.60;;;;;;;16.89;69.23;96785.25;4881785;28;20202;-78
2023/04/28 08:21:31;;;;;;;2.08;1.70;;;;;;;16.96;68.79;96780.38;4873957;28;20038;-78
2023/04/28 08:23:57;;;;;;;2.25;2.05;;;;;;;16.85;69.56;96779.81;4896158;28;20416;-77
2023/04/28 08:26:23;;;;;;;2.45;2.25;;;;;;;16.87;69.96;96784.78;4898655;28;20395;-78
2023/04/28 08:28:49;;;;;;;2.92;2.65;;;;;;;17.02;69.58;96789.72;4889652;28;20284;-78
2023/04/28 08:31:15;;;;;;;3.08;2.80;;;;;;;17.04;70.02;96786.81;4874619;28;20439;-78
2023/04/28 08:33:43;;;;;;;3.25;2.95;;;;;;;17.14;69.92;96780.56;4858652;29;20491;-77
2023/04/28 08:36:10;;;;;;;3.45;3.13;;;;;;;17.27;69.73;96784.97;4863042;28;20132;-77
2023/04/28 08:38:38;;;;;;;3.55;3.25;;;;;;;17.42;69.30;96789.91;4871002;28;20418;-78
2023/04/28 08:41:03;;;;;;;3.90;3.50;;;;;;;17.44;69.38;96788.84;4876320;28;20546;-78
2023/04/28 08:43:34;;;;;;;4.53;4.10;;;;;;;17.41;69.93;96784.97;4856427;29;20462;-78
2023/04/28 08:46:04;;;;;;;4.53;4.13;;;;;;;17.46;70.54;96786.69;4872882;28;20211;-78
2023/04/28 08:48:32;;;;;;;3.60;3.30;;;;;;;17.72;69.62;96785.03;4886006;28;20236;-77
2023/04/28 08:50:58;;;;;;;4.72;4.22;;;;;;;17.69;70.25;96795.38;4873816;28;20594;-79
2023/04/28 08:53:25;;;;;;;4.40;4.00;;;;;;;17.79;70.46;96795.13;4880337;28;20209;-79
2023/04/28 08:55:53;;;;;;;4.38;3.97;;;;;;;17.89;69.98;96796.75;4874313;28;20454;-77
2023/04/28 08:58:19;;;;;;;4.70;4.30;;;;;;;17.98;69.35;96786.31;4844269;28;20279;-78
2023/04/28 09:00:44;;;;;;;4.55;4.15;;;;;;;18.06;68.93;96791.63;4887372;28;20286;-78
2023/04/28 09:03:11;;;;;;;4.13;3.80;;;;;;;18.11;69.39;96794.13;4894165;28;20195;-78
2023/04/28 09:05:36;;;;;;;4.72;4.32;;;;;;;18.07;70.03;96793.16;4902133;28;20199;-78
2023/04/28 09:08:02;;;;;;;4.20;3.80;;;;;;;18.29;69.31;96802.09;4893067;28;20277;-78
2023/04/28 09:10:28;;;;;;;3.67;3.38;;;;;;;18.20;69.71;96796.78;4874172;28;20043;-79
2023/04/28 09:12:55;;;;;;;3.83;3.53;;;;;;;18.45;69.14;96800.59;4857160;28;20463;-78
2023/04/28 09:15:28;;;;;;;3.78;3.33;;;;;;;18.58;69.01;96808.75;4873161;28;20258;-77
2023/04/28 09:17:54;;;;;;;3.72;3.42;;;;;;;18.55;68.73;96806.72;4882830;28;20327;-78
2023/04/28 09:20:27;;;;;;;3.15;2.85;;;;;;;18.61;68.62;96800.19;4878785;28;20338;-80
2023/04/28 09:22:54;;;;;;;3.42;3.15;;;;;;;18.53;68.80;96799.88;4891004;28;20197;-78
2023/04/28 09:25:21;;;;;;;3.38;3.08;;;;;;;18.58;68.79;96814.78;4882556;28;21735;-78
2023/04/28 09:27:47;;;;;;;2.90;2.70;;;;;;;18.59;68.77;96808.41;4875776;28;20429;-78
2023/04/28 09:30:13;;;;;;;3.15;2.85;;;;;;;18.55;68.80;96804.84;4852505;28;20303;-78
2023/04/28 09:32:39;;;;;;;3.47;3.17;;;;;;;18.41;69.69;96807.56;4880931;28;20600;-77
2023/04/28 09:35:06;;;;;;;2.97;2.65;;;;;;;18.52;69.50;96806.25;4878054;28;20198;-77
2023/04/28 09:37:32;;;;;;;2.80;2.60;;;;;;;18.54;69.47;96803.28;4863644;29;20332;-77
2023/04/28 09:40:09;;;;;;;2.90;2.70;;;;;;;18.82;69.09;96798.59;4859321;28;20353;-77
2023/04/28 09:42:37;;;;;;;2.40;2.20;;;;;;;18.77;69.25;96811.88;4889376;28;20169;-77
2023/04/28 09:45:07;;;;;;;2.45;2.22;;;;;;;18.74;69.39;96817.00;4893393;28;20367;-77
2023/04/28 09:47:38;;;;;;;3.63;3.33;;;;;;;18.57;69.89;96817.72;4873825;28;20432;-78
2023/04/28 09:50:08;;;;;;;2.55;2.20;;;;;;;18.70;69.54;96822.13;4878965;28;20358;-77
2023/04/28 09:52:34;;;;;;;3.13;2.15;;;;;;;18.68;68.98;96822.41;4877725;28;20662;-78
2023/04/28 09:55:05;;;;;;;3.90;2.33;;;;;;;18.79;68.60;96825.53;4862276;28;20363;-77
2023/04/28 09:57:32;;;;;;;1.90;1.70;;;;;;;18.59;69.40;96831.38;4885460;28;20078;-78
2023/04/28 09:59:59;;;;;;;2.20;1.60;;;;;;;18.48;69.95;96829.00;4860789;28;20202;-79
2023/04/28 10:02:25;;;;;;;1.10;1.02;;;;;;;18.37;70.05;96835.63;4870156;28;20424;-77
2023/04/28 10:04:51;;;;;;;3.00;1.92;;;;;;;18.44;69.36;96833.34;4889381;28;20422;-76
2023/04/28 10:07:19;;;;;;;1.15;1.08;;;;;;;18.39;70.37;96835.34;4873087;28;20187;-77
2023/04/28 10:09:49;;;;;;;0.85;0.85;;;;;;;18.51;70.16;96838.19;4869472;28;20253;-77
2023/04/28 10:12:19;;;;;;;0.70;0.70;;;;;;;18.55;69.98;96835.72;4888458;28;20269;-77
2023/04/28 10:14:46;;;;;;;0.60;0.52;;;;;;;18.65;69.71;96836.22;4871127;28;20172;-77
2023/04/28 10:17:15;;;;;;;0.93;0.73;;;;;;;18.66;69.43;96834.34;4855496;28;20046;-77
2023/04/28 10:19:43;;;;;;;0.73;0.60;;;;;;;18.75;69.28;96832.53;4875076;28;20392;-77
2023/04/28 10:22:15;;;;;;;1.05;0.55;;;;;;;18.86;69.44;96831.19;4873379;28;20389;-77
2023/04/28 10:24:56;;;;;;;0.47;0.47;;;;;;;18.84;69.86;96832.56;4878299;28;20330;-78
2023/04/28 10:27:29;;;;;;;1.33;0.80;;;;;;;18.79;70.36;96830.81;4889997;28;20187;-77
2023/04/28 10:30:21;;;;;;;2.17;0.80;;;;;;;18.84;69.93;96825.44;4870503;28;20491;-77
2023/04/28 10:32:47;;;;;;;0.55;0.45;;;;;;;18.83;70.12;96823.91;4855525;28;20074;-78
2023/04/28 10:35:31;;;;;;;1.52;0.80;;;;;;;18.96;70.15;96824.06;4851550;28;21387;-77
2023/04/28 10:38:15;;;;;;;1.25;0.70;;;;;;;19.06;70.13;96816.63;4893270;28;20074;-77
2023/04/28 10:40:43;;;;;;;1.13;1.00;;;;;;;19.06;69.72;96819.28;4878107;28;20027;-78
2023/04/28 10:43:30;;;;;;;2.28;0.85;;;;;;;18.82;70.75;96819.69;4861351;28;20039;-78
2023/04/28 10:45:58;;;;;;;1.50;0.90;;;;;;;19.02;70.09;96826.28;4884118;28;20051;-77
2023/04/28 10:48:32;;;;;;;1.10;1.00;;;;;;;19.00;70.67;96820.50;4888864;28;20046;-77
2023/04/28 10:51:08;;;;;;;0.90;0.68;;;;;;;19.30;70.15;96827.88;4891806;28;20211;-77
2023/04/28 10:53:47;;;;;;;1.20;1.10;;;;;;;19.37;69.96;96817.63;4877318;28;20090;-78
2023/04/28 10:56:20;;;;;;;1.10;1.00;;;;;;;19.32;70.18;96810.63;4878628;28;20093;-77
2023/04/28 10:58:47;;;;;;;1.20;1.10;;;;;;;19.28;70.19;96815.75;4872142;28;20034;-78
2023/04/28 11:01:25;;;;;;;1.13;1.00;;;;;;;19.37;70.06;96812.34;4865044;28;20095;-78
2023/04/28 11:03:59;;;;;;;;;;;;;;;;;;;;;
2023/04/28 11:06:27;;;;;;;0.93;0.93;;;;;;;19.18;70.07;96804.72;4882025;28;20027;-80
2023/04/28 11:08:55;;;;;;;1.98;0.82;;;;;;;19.35;69.62;96815.28;4883589;28;20053;-79
2023/04/28 11:11:21;;;;;;;1.98;1.20;;;;;;;19.28;70.24;96805.19;4898182;28;20152;-80
2023/04/28 11:13:47;;;;;;;1.63;0.93;;;;;;;19.43;69.83;96803.16;4893311;28;20037;-82
2023/04/28 11:16:16;;;;;;;1.52;1.42;;;;;;;19.52;70.37;96803.94;4900222;28;20026;-79
2023/04/28 11:18:51;;;;;;;1.35;1.13;;;;;;;19.63;70.09;96799.88;4883183;28;20090;-80
2023/04/28 11:21:18;;;;;;;1.58;1.48;;;;;;;19.70;69.67;96788.09;4899139;28;20045;-80
2023/04/28 11:23:44;;;;;;;1.00;1.00;;;;;;;19.57;69.74;96793.22;4884648;28;20062;-80
2023/04/28 11:26:10;;;;;;;2.35;1.10;;;;;;;19.59;69.40;96793.69;4878934;28;20085;-80
2023/04/28 11:28:36;;;;;;;1.70;1.45;;;;;;;19.52;69.44;96792.59;4884371;28;20404;-81
2023/04/28 11:31:19;;;;;;;1.05;0.95;;;;;;;19.67;69.41;96794.00;4888698;28;20038;-80